Time;durP1;ratioP1;P1;durP2;ratioP2;P2;SDS_P1;SDS_P2;PMS_P1;PMS_P2;Temp;Humidity;BMP_temperature;BMP_pressure;BME280_temperature;BME280_humidity;BME280_pressure;Samples;Min_cycle;Max_cycle;Signal;HPM_P1;HPM_P2
2021/09/22 00:00:34;;;;;;;7.95;6.30;;;12.30;99.90;;;;;;2067845;28;20061;-71
2021/09/22 00:01:34;;;;;;;7.85;6.43;;;12.30;99.90;;;;;;2064345;28;20050;-71
2021/09/22 00:02:35;;;;;;;7.88;6.63;;;12.30;99.90;;;;;;2063963;28;20033;-71
2021/09/22 00:03:36;;;;;;;6.40;5.78;;;12.30;99.90;;;;;;2064079;28;20026;-71
2021/09/22 00:04:36;;;;;;;7.13;6.35;;;12.20;99.90;;;;;;2063939;28;20057;-71
2021/09/22 00:05:37;;;;;;;8.38;6.38;;;12.20;99.90;;;;;;2064222;28;20033;-71
2021/09/22 00:06:37;;;;;;;8.15;6.82;;;12.20;99.90;;;;;;2064128;28;20105;-71
2021/09/22 00:07:38;;;;;;;9.18;6.35;;;12.20;99.90;;;;;;2063965;28;20124;-71
2021/09/22 00:08:38;;;;;;;9.50;6.32;;;12.20;99.90;;;;;;2063490;28;20455;-71
2021/09/22 00:09:39;;;;;;;8.20;6.45;;;12.20;99.90;;;;;;2070397;28;20041;-71
2021/09/22 00:10:40;;;;;;;7.90;6.78;;;12.20;99.90;;;;;;2071986;28;20029;-71
2021/09/22 00:11:40;;;;;;;8.13;6.78;;;12.20;99.90;;;;;;2068315;28;20030;-71
2021/09/22 00:12:41;;;;;;;7.55;6.78;;;12.20;99.90;;;;;;2063428;28;20102;-71
2021/09/22 00:13:42;;;;;;;7.18;6.45;;;12.20;99.90;;;;;;2063867;28;20030;-71
2021/09/22 00:14:43;;;;;;;7.57;6.43;;;12.10;99.90;;;;;;2064158;28;20038;-71
2021/09/22 00:15:44;;;;;;;8.57;5.95;;;12.10;99.90;;;;;;2065157;28;20034;-71
2021/09/22 00:16:45;;;;;;;9.15;6.55;;;12.10;99.90;;;;;;2071558;28;20453;-71
2021/09/22 00:17:46;;;;;;;8.52;5.65;;;12.10;99.90;;;;;;2071953;28;20022;-71
2021/09/22 00:18:46;;;;;;;8.63;6.20;;;12.10;99.90;;;;;;2066531;28;20529;-71
2021/09/22 00:19:47;;;;;;;6.90;6.15;;;12.10;99.90;;;;;;2068642;28;20375;-71
2021/09/22 00:20:47;;;;;;;7.25;6.07;;;12.10;99.90;;;;;;2066234;28;20018;-71
2021/09/22 00:21:48;;;;;;;7.53;6.72;;;12.10;99.90;;;;;;2065932;28;20026;-71
2021/09/22 00:22:49;;;;;;;9.40;6.70;;;12.10;99.90;;;;;;2063830;28;20030;-71
2021/09/22 00:23:50;;;;;;;8.50;6.15;;;12.10;99.90;;;;;;2065414;28;20058;-71
2021/09/22 00:24:51;;;;;;;6.93;6.13;;;12.10;99.90;;;;;;2072131;28;20030;-71
2021/09/22 00:25:51;;;;;;;8.80;6.80;;;12.00;99.90;;;;;;2071818;28;20354;-71
2021/09/22 00:26:52;;;;;;;8.32;6.22;;;12.10;99.90;;;;;;2064402;28;20034;-71
2021/09/22 00:27:52;;;;;;;7.90;6.38;;;12.10;99.90;;;;;;2063760;28;20034;-71
2021/09/22 00:28:53;;;;;;;9.27;6.63;;;12.00;99.90;;;;;;2062855;28;20038;-71
2021/09/22 00:29:54;;;;;;;9.75;6.30;;;12.00;99.90;;;;;;2063906;28;20034;-71
2021/09/22 00:30:55;;;;;;;8.70;6.85;;;12.00;99.90;;;;;;2063997;28;20034;-71
2021/09/22 00:31:55;;;;;;;8.85;6.65;;;12.00;99.90;;;;;;2063823;28;20030;-71
2021/09/22 00:32:56;;;;;;;8.38;6.20;;;12.00;99.90;;;;;;2064040;28;20475;-71
2021/09/22 00:33:56;;;;;;;8.43;6.80;;;12.00;99.90;;;;;;2063929;28;20545;-71
2021/09/22 00:34:57;;;;;;;10.80;6.40;;;12.00;99.90;;;;;;2064006;28;20106;-71
2021/09/22 00:35:58;;;;;;;8.40;7.13;;;12.00;99.90;;;;;;2062995;28;20402;-71
2021/09/22 00:36:59;;;;;;;7.90;6.43;;;12.00;99.90;;;;;;2065693;28;20087;-71
2021/09/22 00:37:59;;;;;;;8.00;6.70;;;12.00;99.90;;;;;;2071873;28;20076;-71
2021/09/22 00:39:01;;;;;;;9.60;7.03;;;11.90;99.90;;;;;;2070944;28;20037;-71
2021/09/22 00:40:02;;;;;;;9.23;7.13;;;11.90;99.90;;;;;;2071548;28;20021;-71
2021/09/22 00:41:02;;;;;;;9.70;6.38;;;11.90;99.90;;;;;;2067235;28;20491;-71
2021/09/22 00:42:06;;;;;;;9.93;6.90;;;11.90;99.90;;;;;;2063936;28;20093;-71
2021/09/22 00:43:07;;;;;;;6.88;5.95;;;11.90;99.90;;;;;;2063910;28;20049;-71
2021/09/22 00:44:08;;;;;;;7.82;6.20;;;11.90;99.90;;;;;;2066797;28;20025;-71
2021/09/22 00:45:12;;;;;;;7.28;6.10;;;11.90;99.90;;;;;;2071894;28;20025;-71
2021/09/22 00:46:12;;;;;;;10.25;7.30;;;11.90;99.90;;;;;;2065140;28;20030;-71
2021/09/22 00:47:14;;;;;;;7.90;6.60;;;11.90;99.90;;;;;;2063576;28;20660;-71
2021/09/22 00:48:15;;;;;;;7.15;6.45;;;11.80;99.90;;;;;;2063257;28;20046;-71
2021/09/22 00:49:15;;;;;;;7.13;6.00;;;11.80;99.90;;;;;;2068507;28;20026;-71
2021/09/22 00:50:16;;;;;;;8.35;6.53;;;11.90;99.90;;;;;;2071970;28;20402;-71
2021/09/22 00:51:17;;;;;;;6.88;6.13;;;11.80;99.90;;;;;;2071096;28;20053;-71
2021/09/22 00:52:18;;;;;;;9.95;6.90;;;11.90;99.90;;;;;;2071794;28;20033;-71
2021/09/22 00:53:19;;;;;;;8.77;7.45;;;11.80;99.90;;;;;;2071962;28;20505;-71
2021/09/22 00:54:19;;;;;;;10.30;6.40;;;11.80;99.90;;;;;;2065591;28;20022;-71
2021/09/22 00:55:20;;;;;;;9.85;6.95;;;11.80;99.90;;;;;;2063501;28;20037;-71
2021/09/22 00:56:21;;;;;;;8.10;6.57;;;11.80;99.90;;;;;;2063864;28;20023;-71
2021/09/22 00:57:22;;;;;;;7.07;6.15;;;11.80;99.90;;;;;;2065886;28;20101;-71
2021/09/22 00:58:24;;;;;;;8.40;6.65;;;11.80;99.90;;;;;;2070841;28;20088;-71
2021/09/22 00:59:24;;;;;;;9.95;7.30;;;11.80;99.90;;;;;;2070713;28;20429;-71
2021/09/22 01:00:28;;;;;;;7.90;6.90;;;11.80;99.90;;;;;;2068888;28;20054;-71
2021/09/22 01:01:29;;;;;;;8.07;6.90;;;11.70;99.90;;;;;;2064123;28;20069;-71
2021/09/22 01:02:29;;;;;;;8.93;6.32;;;11.70;99.90;;;;;;2063680;28;20030;-72
2021/09/22 01:03:30;;;;;;;9.00;6.75;;;11.80;99.90;;;;;;2063718;28;20073;-72
2021/09/22 01:04:31;;;;;;;10.55;6.78;;;11.70;99.90;;;;;;2060540;28;20105;-72
2021/09/22 01:05:32;;;;;;;8.93;7.38;;;11.80;99.90;;;;;;2067303;28;20046;-72
2021/09/22 01:06:33;;;;;;;10.32;7.05;;;11.70;99.90;;;;;;2070999;28;20490;-72
2021/09/22 01:07:33;;;;;;;9.65;7.03;;;11.70;99.90;;;;;;2068484;28;20413;-72
2021/09/22 01:08:35;;;;;;;8.30;7.05;;;11.70;99.90;;;;;;2068143;28;20038;-71
2021/09/22 01:09:40;;;;;;;7.45;6.68;;;11.70;99.90;;;;;;2063706;28;20053;-72
2021/09/22 01:10:41;;;;;;;7.43;6.40;;;11.70;99.90;;;;;;2062990;28;20022;-72
2021/09/22 01:11:41;;;;;;;7.03;5.95;;;11.70;99.90;;;;;;2064832;28;20027;-72
2021/09/22 01:12:43;;;;;;;10.88;7.30;;;11.70;99.90;;;;;;2069758;28;20034;-72
2021/09/22 01:13:44;;;;;;;7.65;6.80;;;11.70;99.90;;;;;;2064672;28;20585;-72
2021/09/22 01:14:45;;;;;;;9.23;6.80;;;11.60;99.90;;;;;;2063436;28;20498;-71
2021/09/22 01:15:46;;;;;;;8.85;6.45;;;11.60;99.90;;;;;;2063534;28;20053;-72
2021/09/22 01:16:47;;;;;;;8.75;7.15;;;11.60;99.90;;;;;;2063675;28;20467;-72
2021/09/22 01:17:47;;;;;;;9.23;7.00;;;11.60;99.90;;;;;;2062842;28;20133;-72
2021/09/22 01:18:48;;;;;;;8.40;6.70;;;11.70;99.90;;;;;;2069208;28;20493;-72
2021/09/22 01:19:49;;;;;;;9.77;6.68;;;11.70;99.90;;;;;;2064390;28;20034;-71
2021/09/22 01:20:53;;;;;;;10.77;7.57;;;11.60;99.90;;;;;;2071530;28;20022;-72
2021/09/22 01:21:56;;;;;;;8.65;7.18;;;11.60;99.90;;;;;;2065433;28;20014;-72
2021/09/22 01:22:58;;;;;;;8.57;7.10;;;11.60;99.90;;;;;;2063007;28;20088;-72
2021/09/22 01:23:58;;;;;;;8.07;6.55;;;11.60;99.90;;;;;;2063270;28;20026;-72
2021/09/22 01:24:59;;;;;;;7.53;6.75;;;11.60;99.90;;;;;;2063261;28;20030;-72
2021/09/22 01:26:00;;;;;;;10.80;7.30;;;11.60;99.90;;;;;;2062816;28;20565;-71
2021/09/22 01:27:00;;;;;;;8.80;7.03;;;11.60;99.90;;;;;;2071056;28;20044;-71
2021/09/22 01:28:02;;;;;;;10.95;6.57;;;11.60;99.90;;;;;;2066046;28;20092;-72
2021/09/22 01:29:03;;;;;;;9.20;8.15;;;11.60;99.90;;;;;;2071283;28;20061;-72
2021/09/22 01:30:04;;;;;;;8.27;6.82;;;11.60;99.90;;;;;;2071447;28;20064;-72
2021/09/22 01:31:05;;;;;;;10.57;7.00;;;11.60;99.90;;;;;;2079095;28;20034;-71
2021/09/22 01:32:06;;;;;;;8.80;7.32;;;11.60;99.90;;;;;;2079025;28;20026;-71
2021/09/22 01:33:10;;;;;;;7.57;6.88;;;11.60;99.90;;;;;;2071853;28;20112;-71
2021/09/22 01:34:13;;;;;;;10.18;7.90;;;11.60;99.90;;;;;;2071689;28;20030;-72
2021/09/22 01:35:14;;;;;;;10.50;8.10;;;11.60;99.90;;;;;;2079035;28;20029;-71
2021/09/22 01:36:14;;;;;;;9.35;7.68;;;11.60;99.90;;;;;;2078981;28;20670;-72
2021/09/22 01:37:15;;;;;;;8.85;7.43;;;11.50;99.90;;;;;;2071757;28;20036;-72
2021/09/22 01:38:21;;;;;;;10.20;7.35;;;11.50;99.90;;;;;;2070793;28;20125;-71
2021/09/22 01:39:21;;;;;;;8.80;6.82;;;11.50;99.90;;;;;;2069186;28;20097;-71
2021/09/22 01:40:22;;;;;;;9.10;7.72;;;11.50;99.90;;;;;;2068510;28;20030;-71
2021/09/22 01:41:22;;;;;;;8.02;7.22;;;11.50;99.90;;;;;;2071538;28;20029;-72
2021/09/22 01:42:23;;;;;;;8.40;7.18;;;11.50;99.90;;;;;;2070945;28;20087;-72
2021/09/22 01:43:25;;;;;;;11.52;8.10;;;11.50;99.90;;;;;;2063815;28;20035;-72
2021/09/22 01:44:25;;;;;;;8.40;6.93;;;11.50;99.90;;;;;;2063372;28;20529;-72
2021/09/22 01:45:26;;;;;;;9.63;7.43;;;11.50;99.90;;;;;;2063749;28;21156;-72
2021/09/22 01:46:26;;;;;;;9.70;7.65;;;11.50;99.90;;;;;;2063293;28;20066;-72
2021/09/22 01:47:27;;;;;;;12.05;7.25;;;11.50;99.90;;;;;;2064146;28;20085;-72
2021/09/22 01:48:28;;;;;;;8.55;6.20;;;11.50;99.90;;;;;;2064480;28;20674;-72
2021/09/22 01:49:29;;;;;;;9.23;6.40;;;11.50;99.90;;;;;;2071865;28;20375;-71
2021/09/22 01:50:29;;;;;;;7.72;6.82;;;11.50;99.90;;;;;;2073314;28;20049;-71
2021/09/22 01:51:30;;;;;;;8.27;7.13;;;11.50;99.90;;;;;;2073217;28;20026;-72
2021/09/22 01:52:32;;;;;;;8.80;7.35;;;11.50;99.90;;;;;;2073061;28;20052;-71
2021/09/22 01:53:33;;;;;;;8.45;7.55;;;11.50;99.90;;;;;;2073351;28;20022;-71
2021/09/22 01:54:34;;;;;;;10.73;6.80;;;11.50;99.90;;;;;;2065260;28;20360;-71
2021/09/22 01:55:35;;;;;;;10.10;6.82;;;11.40;99.90;;;;;;2064880;28;20049;-72
2021/09/22 01:56:35;;;;;;;9.15;7.13;;;11.40;99.90;;;;;;2065130;28;20022;-71
2021/09/22 01:57:36;;;;;;;9.30;7.25;;;11.40;99.90;;;;;;2069206;28;20105;-71
2021/09/22 01:58:37;;;;;;;10.73;7.40;;;11.40;99.90;;;;;;2072602;28;20080;-72
2021/09/22 01:59:38;;;;;;;8.15;7.22;;;11.40;99.90;;;;;;2073137;28;20025;-71
2021/09/22 02:00:38;;;;;;;8.98;7.03;;;11.40;99.90;;;;;;2068207;28;20031;-71
2021/09/22 02:01:39;;;;;;;9.48;7.45;;;11.40;99.90;;;;;;2065125;28;20474;-71
2021/09/22 02:02:40;;;;;;;9.65;7.60;;;11.40;99.90;;;;;;2065108;28;20386;-71
2021/09/22 02:03:42;;;;;;;13.00;7.90;;;11.40;99.90;;;;;;2065104;28;20072;-72
2021/09/22 02:04:43;;;;;;;10.48;7.75;;;11.40;99.90;;;;;;2064650;28;20374;-72
2021/09/22 02:05:44;;;;;;;7.65;6.43;;;11.40;99.90;;;;;;2064205;28;20030;-71
2021/09/22 02:06:44;;;;;;;7.43;6.50;;;11.40;99.90;;;;;;2064504;28;20058;-71
2021/09/22 02:07:45;;;;;;;8.20;7.30;;;11.40;99.90;;;;;;2073232;28;20029;-72
2021/09/22 02:08:45;;;;;;;10.32;7.38;;;11.40;99.90;;;;;;2072509;28;20040;-72
2021/09/22 02:09:46;;;;;;;8.65;6.78;;;11.40;99.90;;;;;;2072964;28;20804;-72
2021/09/22 02:10:47;;;;;;;9.90;7.22;;;11.40;99.90;;;;;;2064516;28;20034;-72
2021/09/22 02:11:47;;;;;;;7.47;6.35;;;11.40;99.90;;;;;;2064336;28;20487;-72
2021/09/22 02:12:48;;;;;;;8.27;7.47;;;11.40;99.90;;;;;;2066174;28;20478;-72
2021/09/22 02:13:48;;;;;;;11.20;8.25;;;11.40;99.90;;;;;;2066902;28;20121;-72
2021/09/22 02:14:49;;;;;;;7.65;6.85;;;11.30;99.90;;;;;;2065086;28;20026;-72
2021/09/22 02:15:49;;;;;;;8.13;7.30;;;11.30;99.90;;;;;;2064872;28;20054;-71
2021/09/22 02:16:50;;;;;;;10.77;6.97;;;11.30;99.90;;;;;;2065037;28;20498;-71
2021/09/22 02:17:51;;;;;;;8.15;7.32;;;11.30;99.90;;;;;;2064911;28;20057;-71
2021/09/22 02:18:52;;;;;;;8.35;7.50;;;11.30;99.90;;;;;;2064285;28;20027;-71
2021/09/22 02:19:52;;;;;;;8.70;7.80;;;11.30;99.90;;;;;;2064737;28;20092;-71
2021/09/22 02:20:53;;;;;;;9.68;7.15;;;11.30;99.90;;;;;;2066827;28;20674;-71
2021/09/22 02:21:53;;;;;;;9.48;7.90;;;11.30;99.90;;;;;;2072982;28;20089;-71
2021/09/22 02:22:54;;;;;;;9.68;7.50;;;11.30;99.90;;;;;;2072595;28;20093;-71
2021/09/22 02:23:54;;;;;;;9.50;7.55;;;11.30;99.90;;;;;;2072888;28;20504;-71
2021/09/22 02:24:55;;;;;;;8.35;7.38;;;11.30;99.90;;;;;;2068802;28;20026;-71
2021/09/22 02:25:56;;;;;;;9.73;6.75;;;11.30;99.90;;;;;;2065070;28;20422;-72
2021/09/22 02:26:56;;;;;;;8.07;6.95;;;11.30;99.90;;;;;;2065008;28;20040;-71
2021/09/22 02:27:57;;;;;;;8.18;7.05;;;11.30;99.90;;;;;;2064715;28;20105;-72
2021/09/22 02:28:57;;;;;;;9.27;7.25;;;11.30;99.90;;;;;;2064281;28;20057;-71
2021/09/22 02:29:58;;;;;;;8.48;7.68;;;11.30;99.90;;;;;;2064727;28;20356;-71
2021/09/22 02:30:58;;;;;;;9.50;8.40;;;11.30;99.90;;;;;;2064970;28;20058;-72
2021/09/22 02:31:59;;;;;;;9.30;7.68;;;11.20;99.90;;;;;;2064683;28;20038;-72
2021/09/22 02:32:59;;;;;;;9.55;7.68;;;11.30;99.90;;;;;;2064922;28;20117;-72
2021/09/22 02:34:01;;;;;;;10.00;8.25;;;11.20;99.90;;;;;;2064901;28;20026;-72
2021/09/22 02:35:02;;;;;;;8.20;7.40;;;11.20;99.90;;;;;;2068232;28;20347;-71
2021/09/22 02:36:02;;;;;;;8.13;7.30;;;11.20;99.90;;;;;;2072946;28;20081;-72
2021/09/22 02:37:04;;;;;;;8.75;7.75;;;11.20;99.90;;;;;;2073056;28;20510;-72
2021/09/22 02:38:05;;;;;;;9.15;7.35;;;11.20;99.90;;;;;;2066462;28;20022;-71
2021/09/22 02:39:06;;;;;;;11.68;7.60;;;11.20;99.90;;;;;;2064613;28;20116;-71
2021/09/22 02:40:13;;;;;;;9.75;8.20;;;11.20;99.90;;;;;;2064727;28;20030;-72
2021/09/22 02:41:14;;;;;;;9.80;7.80;;;11.20;99.90;;;;;;2064790;28;20529;-71
2021/09/22 02:42:14;;;;;;;9.95;7.65;;;11.20;99.90;;;;;;2065053;28;20506;-71
2021/09/22 02:43:15;;;;;;;8.57;7.18;;;11.20;99.90;;;;;;2064615;28;20022;-71
2021/09/22 02:44:15;;;;;;;8.23;7.43;;;11.20;99.90;;;;;;2064588;28;20360;-72
2021/09/22 02:45:16;;;;;;;11.55;7.88;;;11.20;99.90;;;;;;2064737;28;20031;-72
2021/09/22 02:46:16;;;;;;;10.02;7.53;;;11.20;99.90;;;;;;2064992;28;20026;-72
2021/09/22 02:47:19;;;;;;;9.23;6.70;;;11.20;99.90;;;;;;2063540;28;20034;-72
2021/09/22 02:48:20;;;;;;;9.13;7.65;;;11.20;99.90;;;;;;2063552;28;20513;-72
2021/09/22 02:49:21;;;;;;;9.13;7.90;;;11.10;99.90;;;;;;2070574;28;20546;-71
2021/09/22 02:50:22;;;;;;;8.65;7.75;;;11.20;99.90;;;;;;2072343;28;20548;-71
2021/09/22 02:51:22;;;;;;;11.32;8.10;;;11.10;99.90;;;;;;2064439;28;20038;-72
2021/09/22 02:52:23;;;;;;;11.07;8.25;;;11.20;99.90;;;;;;2064366;28;20110;-72
2021/09/22 02:53:23;;;;;;;11.45;7.65;;;11.10;99.90;;;;;;2064438;28;20050;-72
2021/09/22 02:54:24;;;;;;;9.43;7.65;;;11.10;99.90;;;;;;2064878;28;20034;-71
2021/09/22 02:55:25;;;;;;;10.38;8.70;;;11.10;99.90;;;;;;2064473;28;20339;-71
2021/09/22 02:56:25;;;;;;;8.98;8.02;;;11.10;99.90;;;;;;2065134;28;20345;-71
2021/09/22 02:57:26;;;;;;;9.82;7.32;;;11.10;99.90;;;;;;2067114;28;20068;-72
2021/09/22 02:58:26;;;;;;;10.85;6.88;;;11.10;99.90;;;;;;2071460;28;20030;-72
2021/09/22 02:59:27;;;;;;;13.38;8.13;;;11.10;99.90;;;;;;2063167;28;20493;-71
2021/09/22 03:00:27;;;;;;;11.52;8.32;;;11.00;99.90;;;;;;2064985;28;20064;-72
2021/09/22 03:01:28;;;;;;;9.15;7.95;;;11.10;99.90;;;;;;2064253;28;20110;-72
2021/09/22 03:02:28;;;;;;;9.43;7.82;;;11.10;99.90;;;;;;2065247;28;20037;-72
2021/09/22 03:03:30;;;;;;;10.48;7.70;;;11.10;99.90;;;;;;2072783;28;20029;-72
2021/09/22 03:04:31;;;;;;;10.23;8.02;;;11.10;99.90;;;;;;2071203;28;20021;-71
2021/09/22 03:05:32;;;;;;;10.27;8.55;;;11.00;99.90;;;;;;2067688;28;20034;-71
2021/09/22 03:06:32;;;;;;;15.77;8.88;;;11.10;99.90;;;;;;2072557;28;20113;-71
2021/09/22 03:07:33;;;;;;;9.88;8.35;;;11.00;99.90;;;;;;2064575;28;20062;-72
2021/09/22 03:08:33;;;;;;;10.63;8.75;;;11.00;99.90;;;;;;2067291;28;20413;-71
2021/09/22 03:09:34;;;;;;;8.85;7.93;;;11.00;99.90;;;;;;2072388;28;20026;-71
2021/09/22 03:10:35;;;;;;;10.63;7.18;;;11.00;99.90;;;;;;2072793;28;20056;-72
2021/09/22 03:11:35;;;;;;;11.57;7.72;;;11.00;99.90;;;;;;2072635;28;20057;-72
2021/09/22 03:12:36;;;;;;;10.63;8.57;;;11.00;99.90;;;;;;2072882;28;20111;-72
2021/09/22 03:13:38;;;;;;;12.20;9.32;;;11.00;99.90;;;;;;2067804;28;20038;-71
2021/09/22 03:14:39;;;;;;;10.75;8.82;;;11.00;99.90;;;;;;2066313;28;20061;-72
2021/09/22 03:15:39;;;;;;;10.20;8.30;;;11.00;99.90;;;;;;2072021;28;20072;-71
2021/09/22 03:16:40;;;;;;;12.00;8.57;;;11.00;99.90;;;;;;2068625;28;20030;-71
2021/09/22 03:17:41;;;;;;;10.27;8.63;;;11.00;99.90;;;;;;2064431;28;20433;-72
2021/09/22 03:18:41;;;;;;;12.30;8.15;;;11.00;99.90;;;;;;2063956;28;20026;-72
2021/09/22 03:19:42;;;;;;;10.10;8.48;;;11.00;99.90;;;;;;2064660;28;20085;-72
2021/09/22 03:20:42;;;;;;;11.55;8.48;;;11.00;99.90;;;;;;2064143;28;20479;-71
2021/09/22 03:21:43;;;;;;;10.88;9.10;;;11.00;99.90;;;;;;2064484;28;20447;-71
2021/09/22 03:22:44;;;;;;;12.35;9.05;;;11.00;99.90;;;;;;2064446;28;20026;-71
2021/09/22 03:23:44;;;;;;;9.98;8.48;;;11.00;99.90;;;;;;2064799;28;20041;-71
2021/09/22 03:24:45;;;;;;;9.98;8.60;;;11.00;99.90;;;;;;2064193;28;20168;-72
2021/09/22 03:25:46;;;;;;;9.90;8.80;;;11.00;99.90;;;;;;2064461;28;20027;-72
2021/09/22 03:26:47;;;;;;;10.57;9.25;;;11.00;99.90;;;;;;2064209;28;20026;-72
2021/09/22 03:27:47;;;;;;;10.80;9.32;;;11.00;99.90;;;;;;2064234;28;20050;-72
2021/09/22 03:28:48;;;;;;;11.50;8.88;;;10.90;99.90;;;;;;2063794;28;20557;-72
2021/09/22 03:29:49;;;;;;;10.48;8.55;;;10.90;99.90;;;;;;2064640;28;20506;-72
2021/09/22 03:30:49;;;;;;;9.73;8.23;;;10.90;99.90;;;;;;2069829;28;20025;-72
2021/09/22 03:31:50;;;;;;;11.32;8.88;;;10.90;99.90;;;;;;2072404;28;20034;-72
2021/09/22 03:32:50;;;;;;;15.05;9.45;;;10.90;99.90;;;;;;2068613;28;20113;-71
2021/09/22 03:33:51;;;;;;;10.50;8.80;;;10.90;99.90;;;;;;2064632;28;20033;-72
2021/09/22 03:34:51;;;;;;;10.52;8.35;;;10.90;99.90;;;;;;2064534;28;20027;-72
2021/09/22 03:35:52;;;;;;;10.82;8.98;;;10.90;99.90;;;;;;2068210;28;20022;-72
2021/09/22 03:36:52;;;;;;;12.10;9.13;;;10.90;99.90;;;;;;2072311;28;20053;-72
2021/09/22 03:37:53;;;;;;;15.55;8.77;;;10.90;99.90;;;;;;2067584;28;20478;-72
2021/09/22 03:38:54;;;;;;;11.82;9.40;;;10.90;99.90;;;;;;2063642;28;20498;-72
2021/09/22 03:39:54;;;;;;;12.85;8.23;;;10.90;99.90;;;;;;2063972;28;20023;-72
2021/09/22 03:40:55;;;;;;;9.68;8.05;;;10.90;99.90;;;;;;2064366;28;20049;-72
2021/09/22 03:41:55;;;;;;;8.98;7.80;;;10.80;99.90;;;;;;2072569;28;20022;-72
2021/09/22 03:42:56;;;;;;;12.70;8.95;;;10.90;99.90;;;;;;2065875;28;20061;-72
2021/09/22 03:43:57;;;;;;;12.93;9.90;;;10.90;99.90;;;;;;2064374;28;20026;-72
2021/09/22 03:44:57;;;;;;;11.20;9.75;;;10.90;99.90;;;;;;2064351;28;20407;-72
2021/09/22 03:45:58;;;;;;;11.90;9.68;;;10.90;99.90;;;;;;2064363;28;20030;-72
2021/09/22 03:46:59;;;;;;;11.48;9.00;;;10.90;99.90;;;;;;2063972;28;20093;-71
2021/09/22 03:47:59;;;;;;;10.52;9.13;;;10.80;99.90;;;;;;2064444;28;20041;-71
2021/09/22 03:49:00;;;;;;;10.52;8.18;;;10.90;99.90;;;;;;2066495;28;20072;-71
2021/09/22 03:50:00;;;;;;;11.05;8.45;;;10.80;99.90;;;;;;2072309;28;20034;-71
2021/09/22 03:51:01;;;;;;;12.25;8.93;;;10.90;99.90;;;;;;2072135;28;20038;-71
2021/09/22 03:52:02;;;;;;;11.68;8.65;;;10.80;99.90;;;;;;2072304;28;20021;-71
2021/09/22 03:53:03;;;;;;;9.68;8.52;;;10.90;99.90;;;;;;2071800;28;20413;-72
2021/09/22 03:54:03;;;;;;;11.70;7.95;;;10.80;99.90;;;;;;2067361;28;20097;-72
2021/09/22 03:55:04;;;;;;;13.68;9.07;;;10.80;99.90;;;;;;2064143;28;20092;-72
2021/09/22 03:56:05;;;;;;;11.35;8.95;;;10.80;99.90;;;;;;2064084;28;20030;-72
2021/09/22 03:57:06;;;;;;;11.45;9.07;;;10.80;99.90;;;;;;2065696;28;20024;-72
2021/09/22 03:58:06;;;;;;;12.45;8.77;;;10.80;99.90;;;;;;2065447;28;20026;-72
2021/09/22 03:59:07;;;;;;;13.07;9.93;;;10.80;99.90;;;;;;2064060;28;20045;-72
2021/09/22 04:00:08;;;;;;;14.07;10.95;;;10.80;99.90;;;;;;2063785;28;20027;-72
2021/09/22 04:01:09;;;;;;;11.60;9.35;;;10.80;99.90;;;;;;2064243;28;20023;-72
2021/09/22 04:02:09;;;;;;;18.90;9.95;;;10.80;99.90;;;;;;2064040;28;20030;-72
2021/09/22 04:03:10;;;;;;;11.57;9.18;;;10.80;99.90;;;;;;2064107;28;20537;-72
2021/09/22 04:04:11;;;;;;;11.88;9.48;;;10.80;99.90;;;;;;2063955;28;20026;-72
2021/09/22 04:05:12;;;;;;;10.15;8.50;;;10.80;99.90;;;;;;2064233;28;20018;-72
2021/09/22 04:06:12;;;;;;;10.43;8.68;;;10.80;99.90;;;;;;2063902;28;20061;-72
2021/09/22 04:07:13;;;;;;;10.10;8.40;;;10.80;99.90;;;;;;2063275;28;20026;-72
2021/09/22 04:08:13;;;;;;;13.63;8.77;;;10.80;99.90;;;;;;2062686;28;20019;-72
2021/09/22 04:09:15;;;;;;;16.63;9.75;;;10.70;99.90;;;;;;2063508;28;20022;-72
2021/09/22 04:10:16;;;;;;;9.20;8.30;;;10.80;99.90;;;;;;2063137;28;20062;-72
2021/09/22 04:11:19;;;;;;;11.32;8.43;;;10.80;99.90;;;;;;2070130;28;20466;-72
2021/09/22 04:12:20;;;;;;;12.15;9.38;;;10.80;99.90;;;;;;2071971;28;20018;-72
2021/09/22 04:13:20;;;;;;;10.48;9.38;;;10.80;99.90;;;;;;2071055;28;20508;-72
2021/09/22 04:14:21;;;;;;;10.07;8.57;;;10.80;99.90;;;;;;2072080;28;20060;-72
2021/09/22 04:15:22;;;;;;;12.68;9.85;;;10.80;99.90;;;;;;2066914;28;20018;-71
2021/09/22 04:16:22;;;;;;;9.45;8.30;;;10.80;99.90;;;;;;2067810;28;20025;-71
2021/09/22 04:17:23;;;;;;;11.43;9.63;;;10.70;99.90;;;;;;2063993;28;20030;-72
2021/09/22 04:18:23;;;;;;;13.52;10.43;;;10.80;99.90;;;;;;2063614;28;20419;-72
2021/09/22 04:19:24;;;;;;;13.13;10.70;;;10.70;99.90;;;;;;2064083;28;20028;-72
2021/09/22 04:20:25;;;;;;;11.98;9.68;;;10.70;99.90;;;;;;2064005;28;20031;-72
2021/09/22 04:21:25;;;;;;;9.93;8.90;;;10.70;99.90;;;;;;2064009;28;20029;-72
2021/09/22 04:22:26;;;;;;;12.05;9.65;;;10.70;99.90;;;;;;2071055;28;20168;-72
2021/09/22 04:23:26;;;;;;;13.70;9.50;;;10.70;99.90;;;;;;2071917;28;20025;-72
2021/09/22 04:24:27;;;;;;;11.63;9.35;;;10.70;99.90;;;;;;2064087;28;20493;-71
2021/09/22 04:25:27;;;;;;;13.77;9.48;;;10.70;99.90;;;;;;2072215;28;20072;-71
2021/09/22 04:26:28;;;;;;;12.85;10.25;;;10.70;99.90;;;;;;2072040;28;20034;-72
2021/09/22 04:27:29;;;;;;;11.60;9.85;;;10.70;99.90;;;;;;2072097;28;20030;-72
2021/09/22 04:28:29;;;;;;;11.82;10.55;;;10.70;99.90;;;;;;2071301;28;20026;-72
2021/09/22 04:29:30;;;;;;;11.32;9.43;;;10.70;99.90;;;;;;2070883;28;20033;-72
2021/09/22 04:30:31;;;;;;;12.68;9.15;;;10.70;99.90;;;;;;2064240;28;20046;-72
2021/09/22 04:31:31;;;;;;;11.13;8.77;;;10.70;99.90;;;;;;2063767;28;20171;-72
2021/09/22 04:32:32;;;;;;;12.05;9.32;;;10.70;99.90;;;;;;2064003;28;20118;-72
2021/09/22 04:33:33;;;;;;;11.65;9.57;;;10.70;99.90;;;;;;2063856;28;20022;-71
2021/09/22 04:34:33;;;;;;;13.52;10.77;;;10.70;99.90;;;;;;2063764;28;20065;-71
2021/09/22 04:35:34;;;;;;;12.27;10.20;;;10.70;99.90;;;;;;2063909;28;20038;-72
2021/09/22 04:36:35;;;;;;;11.90;9.98;;;10.70;99.90;;;;;;2063819;28;20117;-72
2021/09/22 04:37:37;;;;;;;12.02;9.43;;;10.70;99.90;;;;;;2063823;28;20065;-72
2021/09/22 04:38:38;;;;;;;13.57;9.88;;;10.70;99.90;;;;;;2065514;28;20026;-72
2021/09/22 04:39:38;;;;;;;12.18;9.55;;;10.60;99.90;;;;;;2072037;28;20105;-72
2021/09/22 04:40:39;;;;;;;12.23;9.40;;;10.70;99.90;;;;;;2071265;28;20105;-72
2021/09/22 04:41:40;;;;;;;12.95;9.88;;;10.60;99.90;;;;;;2063218;28;20022;-72
2021/09/22 04:42:40;;;;;;;13.38;10.45;;;10.60;99.90;;;;;;2063774;28;20091;-72
2021/09/22 04:43:42;;;;;;;12.38;9.73;;;10.60;99.90;;;;;;2063589;28;20355;-72
2021/09/22 04:44:42;;;;;;;11.20;9.60;;;10.60;99.90;;;;;;2063749;28;20568;-72
2021/09/22 04:45:45;;;;;;;13.75;9.90;;;10.60;99.90;;;;;;2063694;28;20026;-72
2021/09/22 04:46:46;;;;;;;13.30;9.70;;;10.60;99.90;;;;;;2063810;28;20033;-72
2021/09/22 04:47:46;;;;;;;12.07;9.57;;;10.60;99.90;;;;;;2063955;28;20109;-72
2021/09/22 04:48:47;;;;;;;13.85;9.18;;;10.60;99.90;;;;;;2064386;28;20034;-72
2021/09/22 04:49:48;;;;;;;10.48;9.38;;;10.60;99.90;;;;;;2071575;28;20036;-72
2021/09/22 04:50:48;;;;;;;14.95;10.30;;;10.60;99.90;;;;;;2071913;28;20128;-72
2021/09/22 04:51:49;;;;;;;11.48;10.10;;;10.60;99.90;;;;;;2071812;28;20033;-71
2021/09/22 04:52:50;;;;;;;13.25;9.63;;;10.60;99.90;;;;;;2066565;28;20037;-72
2021/09/22 04:53:50;;;;;;;14.98;10.85;;;10.60;99.90;;;;;;2063657;28;20077;-72
2021/09/22 04:54:51;;;;;;;10.18;8.80;;;10.60;99.90;;;;;;2063913;28;20081;-72
2021/09/22 04:55:52;;;;;;;12.90;10.70;;;10.60;99.90;;;;;;2063453;28;20023;-72
2021/09/22 04:56:52;;;;;;;10.63;8.40;;;10.60;99.90;;;;;;2063709;28;20101;-72
2021/09/22 04:57:53;;;;;;;12.73;9.98;;;10.60;99.90;;;;;;2069887;28;20041;-72
2021/09/22 04:58:53;;;;;;;10.68;8.90;;;10.60;99.90;;;;;;2071111;28;20382;-72
2021/09/22 04:59:54;;;;;;;16.25;10.57;;;10.60;99.90;;;;;;2071998;28;20049;-72
2021/09/22 05:00:56;;;;;;;10.48;9.05;;;10.60;99.90;;;;;;2064388;28;20033;-72
2021/09/22 05:01:56;;;;;;;10.35;8.82;;;10.60;99.90;;;;;;2063527;28;20022;-72
2021/09/22 05:02:57;;;;;;;10.77;8.80;;;10.60;99.90;;;;;;2063636;28;20029;-72
2021/09/22 05:03:57;;;;;;;12.35;9.77;;;10.60;99.90;;;;;;2063712;28;20037;-72
2021/09/22 05:04:58;;;;;;;13.50;10.32;;;10.60;99.90;;;;;;2063201;28;20367;-72
2021/09/22 05:05:59;;;;;;;14.45;10.60;;;10.60;99.90;;;;;;2063641;28;20037;-72
2021/09/22 05:06:59;;;;;;;13.50;10.52;;;10.60;99.90;;;;;;2066889;28;20057;-72
2021/09/22 05:08:00;;;;;;;15.80;9.35;;;10.60;99.90;;;;;;2063775;28;20030;-72
2021/09/22 05:09:00;;;;;;;14.13;11.15;;;10.60;99.90;;;;;;2063021;28;20438;-72
2021/09/22 05:10:01;;;;;;;11.68;9.45;;;10.50;99.90;;;;;;2063481;28;20466;-73
2021/09/22 05:11:02;;;;;;;11.88;10.70;;;10.50;99.90;;;;;;2063547;28;20034;-72
2021/09/22 05:12:03;;;;;;;10.68;8.10;;;10.50;99.90;;;;;;2062767;28;20031;-72
2021/09/22 05:13:03;;;;;;;12.68;9.32;;;10.50;99.90;;;;;;2067646;28;20072;-72
2021/09/22 05:14:04;;;;;;;10.13;8.20;;;10.50;99.90;;;;;;2064039;28;20027;-72